sensor_id;sensor_type;location;lat;lon;timestamp;P1;durP1;ratioP1;P2;durP2;ratioP2
48401;SDS011;65988;52.422;16.746;2023-05-07T00:00:04;0.10;;;0.10;;
48401;SDS011;65988;52.422;16.746;2023-05-07T00:02:38;0.20;;;0.20;;
48401;SDS011;65988;52.422;16.746;2023-05-07T00:05:07;0.20;;;0.20;;
48401;SDS011;65988;52.422;16.746;2023-05-07T00:07:39;0.20;;;0.20;;
48401;SDS011;65988;52.422;16.746;2023-05-07T00:10:06;0.10;;;0.10;;
48401;SDS011;65988;52.422;16.746;2023-05-07T00:12:35;0.20;;;0.20;;
48401;SDS011;65988;52.422;16.746;2023-05-07T00:15:06;0.20;;;0.20;;
48401;SDS011;65988;52.422;16.746;2023-05-07T00:17:32;0.15;;;0.15;;
48401;SDS011;65988;52.422;16.746;2023-05-07T00:20:01;0.10;;;0.10;;
48401;SDS011;65988;52.422;16.746;2023-05-07T00:22:30;0.20;;;0.20;;
48401;SDS011;65988;52.422;16.746;2023-05-07T00:25:06;0.10;;;0.10;;
48401;SDS011;65988;52.422;16.746;2023-05-07T00:30:29;0.20;;;0.20;;
48401;SDS011;65988;52.422;16.746;2023-05-07T00:32:57;0.10;;;0.10;;
48401;SDS011;65988;52.422;16.746;2023-05-07T00:35:30;0.10;;;0.10;;
48401;SDS011;65988;52.422;16.746;2023-05-07T00:38:05;0.13;;;0.13;;
48401;SDS011;65988;52.422;16.746;2023-05-07T00:40:36;0.20;;;0.20;;
48401;SDS011;65988;52.422;16.746;2023-05-07T00:46:08;0.20;;;0.20;;
48401;SDS011;65988;52.422;16.746;2023-05-07T00:48:41;0.20;;;0.20;;
48401;SDS011;65988;52.422;16.746;2023-05-07T00:51:11;0.15;;;0.15;;
48401;SDS011;65988;52.422;16.746;2023-05-07T00:53:59;0.20;;;0.20;;
48401;SDS011;65988;52.422;16.746;2023-05-07T00:56:54;0.20;;;0.20;;
48401;SDS011;65988;52.422;16.746;2023-05-07T00:59:24;0.20;;;0.20;;
48401;SDS011;65988;52.422;16.746;2023-05-07T01:02:03;0.20;;;0.20;;
48401;SDS011;65988;52.422;16.746;2023-05-07T01:04:36;0.20;;;0.20;;
48401;SDS011;65988;52.422;16.746;2023-05-07T01:07:05;0.20;;;0.20;;
48401;SDS011;65988;52.422;16.746;2023-05-07T01:09:37;0.20;;;0.20;;
48401;SDS011;65988;52.422;16.746;2023-05-07T01:12:04;0.20;;;0.20;;
48401;SDS011;65988;52.422;16.746;2023-05-07T01:14:33;0.10;;;0.10;;
48401;SDS011;65988;52.422;16.746;2023-05-07T01:17:02;0.17;;;0.17;;
48401;SDS011;65988;52.422;16.746;2023-05-07T01:19:31;0.20;;;0.20;;
48401;SDS011;65988;52.422;16.746;2023-05-07T01:22:01;0.10;;;0.10;;
48401;SDS011;65988;52.422;16.746;2023-05-07T01:24:30;0.10;;;0.10;;
48401;SDS011;65988;52.422;16.746;2023-05-07T01:29:26;0.10;;;0.10;;
48401;SDS011;65988;52.422;16.746;2023-05-07T01:32:07;0.20;;;0.20;;
48401;SDS011;65988;52.422;16.746;2023-05-07T01:37:14;0.20;;;0.20;;
48401;SDS011;65988;52.422;16.746;2023-05-07T01:39:44;0.20;;;0.20;;
48401;SDS011;65988;52.422;16.746;2023-05-07T01:42:24;0.17;;;0.17;;
48401;SDS011;65988;52.422;16.746;2023-05-07T01:44:50;0.10;;;0.10;;
48401;SDS011;65988;52.422;16.746;2023-05-07T01:47:27;0.20;;;0.20;;
48401;SDS011;65988;52.422;16.746;2023-05-07T01:49:54;0.20;;;0.20;;
48401;SDS011;65988;52.422;16.746;2023-05-07T01:52:28;0.20;;;0.20;;
48401;SDS011;65988;52.422;16.746;2023-05-07T01:54:58;0.20;;;0.20;;
48401;SDS011;65988;52.422;16.746;2023-05-07T01:57:28;0.20;;;0.20;;
48401;SDS011;65988;52.422;16.746;2023-05-07T02:00:02;0.10;;;0.10;;
48401;SDS011;65988;52.422;16.746;2023-05-07T02:02:42;0.20;;;0.20;;
48401;SDS011;65988;52.422;16.746;2023-05-07T02:05:22;0.20;;;0.20;;
48401;SDS011;65988;52.422;16.746;2023-05-07T02:07:59;0.20;;;0.20;;
48401;SDS011;65988;52.422;16.746;2023-05-07T02:10:35;0.20;;;0.20;;
48401;SDS011;65988;52.422;16.746;2023-05-07T02:15:37;0.20;;;0.20;;
48401;SDS011;65988;52.422;16.746;2023-05-07T02:18:18;0.20;;;0.20;;
48401;SDS011;65988;52.422;16.746;2023-05-07T02:20:52;0.25;;;0.25;;
48401;SDS011;65988;52.422;16.746;2023-05-07T02:23:22;0.30;;;0.30;;
48401;SDS011;65988;52.422;16.746;2023-05-07T02:26:13;0.20;;;0.20;;
48401;SDS011;65988;52.422;16.746;2023-05-07T02:28:43;0.10;;;0.10;;
48401;SDS011;65988;52.422;16.746;2023-05-07T02:31:12;0.20;;;0.20;;
48401;SDS011;65988;52.422;16.746;2023-05-07T02:33:43;0.10;;;0.10;;
48401;SDS011;65988;52.422;16.746;2023-05-07T02:36:12;0.10;;;0.10;;
48401;SDS011;65988;52.422;16.746;2023-05-07T02:38:43;0.17;;;0.17;;
48401;SDS011;65988;52.422;16.746;2023-05-07T02:41:35;0.17;;;0.17;;
48401;SDS011;65988;52.422;16.746;2023-05-07T02:44:07;0.20;;;0.20;;
48401;SDS011;65988;52.422;16.746;2023-05-07T02:46:36;0.20;;;0.20;;
48401;SDS011;65988;52.422;16.746;2023-05-07T02:49:03;0.20;;;0.20;;
48401;SDS011;65988;52.422;16.746;2023-05-07T02:51:42;0.20;;;0.20;;
48401;SDS011;65988;52.422;16.746;2023-05-07T02:54:12;0.20;;;0.20;;
48401;SDS011;65988;52.422;16.746;2023-05-07T02:56:45;0.20;;;0.20;;
48401;SDS011;65988;52.422;16.746;2023-05-07T02:59:17;0.20;;;0.20;;
48401;SDS011;65988;52.422;16.746;2023-05-07T03:02:05;0.20;;;0.20;;
48401;SDS011;65988;52.422;16.746;2023-05-07T03:04:39;0.20;;;0.20;;
48401;SDS011;65988;52.422;16.746;2023-05-07T03:07:12;0.10;;;0.10;;
48401;SDS011;65988;52.422;16.746;2023-05-07T03:09:48;0.20;;;0.20;;
48401;SDS011;65988;52.422;16.746;2023-05-07T03:12:29;0.28;;;0.28;;
48401;SDS011;65988;52.422;16.746;2023-05-07T03:15:00;0.17;;;0.17;;
48401;SDS011;65988;52.422;16.746;2023-05-07T03:17:30;0.20;;;0.20;;
48401;SDS011;65988;52.422;16.746;2023-05-07T03:19:59;0.20;;;0.20;;
48401;SDS011;65988;52.422;16.746;2023-05-07T03:22:25;0.20;;;0.20;;
48401;SDS011;65988;52.422;16.746;2023-05-07T03:25:01;0.10;;;0.10;;
48401;SDS011;65988;52.422;16.746;2023-05-07T03:27:29;0.10;;;0.10;;
48401;SDS011;65988;52.422;16.746;2023-05-07T03:29:55;0.10;;;0.10;;
48401;SDS011;65988;52.422;16.746;2023-05-07T03:32:22;0.20;;;0.20;;
48401;SDS011;65988;52.422;16.746;2023-05-07T03:34:48;0.15;;;0.15;;
48401;SDS011;65988;52.422;16.746;2023-05-07T03:37:13;0.22;;;0.22;;
48401;SDS011;65988;52.422;16.746;2023-05-07T03:39:52;0.13;;;0.13;;
48401;SDS011;65988;52.422;16.746;2023-05-07T03:42:17;0.10;;;0.10;;
48401;SDS011;65988;52.422;16.746;2023-05-07T03:44:54;0.20;;;0.20;;
48401;SDS011;65988;52.422;16.746;2023-05-07T03:47:26;0.30;;;0.30;;
48401;SDS011;65988;52.422;16.746;2023-05-07T03:49:54;0.20;;;0.20;;
48401;SDS011;65988;52.422;16.746;2023-05-07T03:52:30;0.20;;;0.20;;
48401;SDS011;65988;52.422;16.746;2023-05-07T03:54:55;0.22;;;0.22;;
48401;SDS011;65988;52.422;16.746;2023-05-07T03:57:25;0.10;;;0.10;;
48401;SDS011;65988;52.422;16.746;2023-05-07T04:00:03;0.20;;;0.20;;
48401;SDS011;65988;52.422;16.746;2023-05-07T04:02:32;0.10;;;0.10;;
48401;SDS011;65988;52.422;16.746;2023-05-07T04:05:02;0.20;;;0.20;;
48401;SDS011;65988;52.422;16.746;2023-05-07T04:07:31;0.10;;;0.10;;
48401;SDS011;65988;52.422;16.746;2023-05-07T04:10:02;0.22;;;0.22;;
48401;SDS011;65988;52.422;16.746;2023-05-07T04:12:41;0.13;;;0.13;;
48401;SDS011;65988;52.422;16.746;2023-05-07T04:15:23;0.20;;;0.20;;
48401;SDS011;65988;52.422;16.746;2023-05-07T04:17:59;0.15;;;0.15;;
48401;SDS011;65988;52.422;16.746;2023-05-07T04:20:33;0.20;;;0.20;;
48401;SDS011;65988;52.422;16.746;2023-05-07T04:23:03;0.13;;;0.13;;
48401;SDS011;65988;52.422;16.746;2023-05-07T04:25:34;0.20;;;0.20;;
48401;SDS011;65988;52.422;16.746;2023-05-07T04:28:13;0.20;;;0.20;;
48401;SDS011;65988;52.422;16.746;2023-05-07T04:30:44;0.20;;;0.20;;
48401;SDS011;65988;52.422;16.746;2023-05-07T04:33:16;0.20;;;0.20;;
48401;SDS011;65988;52.422;16.746;2023-05-07T04:35:53;0.10;;;0.10;;
48401;SDS011;65988;52.422;16.746;2023-05-07T04:38:41;0.20;;;0.20;;
48401;SDS011;65988;52.422;16.746;2023-05-07T04:41:30;0.15;;;0.15;;
48401;SDS011;65988;52.422;16.746;2023-05-07T04:44:16;0.20;;;0.20;;
48401;SDS011;65988;52.422;16.746;2023-05-07T04:49:36;0.20;;;0.20;;
48401;SDS011;65988;52.422;16.746;2023-05-07T04:52:07;0.10;;;0.10;;
48401;SDS011;65988;52.422;16.746;2023-05-07T04:54:48;0.10;;;0.10;;
48401;SDS011;65988;52.422;16.746;2023-05-07T04:57:14;0.10;;;0.10;;
48401;SDS011;65988;52.422;16.746;2023-05-07T04:59:44;0.28;;;0.28;;
48401;SDS011;65988;52.422;16.746;2023-05-07T05:02:24;0.20;;;0.20;;
48401;SDS011;65988;52.422;16.746;2023-05-07T05:05:00;0.10;;;0.10;;
48401;SDS011;65988;52.422;16.746;2023-05-07T05:07:28;0.10;;;0.10;;
48401;SDS011;65988;52.422;16.746;2023-05-07T05:09:56;0.20;;;0.20;;
48401;SDS011;65988;52.422;16.746;2023-05-07T05:12:22;0.17;;;0.17;;
48401;SDS011;65988;52.422;16.746;2023-05-07T05:14:50;0.20;;;0.20;;
48401;SDS011;65988;52.422;16.746;2023-05-07T05:17:19;0.17;;;0.17;;
48401;SDS011;65988;52.422;16.746;2023-05-07T05:22:23;0.10;;;0.10;;
48401;SDS011;65988;52.422;16.746;2023-05-07T05:25:02;0.20;;;0.20;;
48401;SDS011;65988;52.422;16.746;2023-05-07T05:27:34;0.20;;;0.20;;
48401;SDS011;65988;52.422;16.746;2023-05-07T05:30:17;0.20;;;0.20;;
48401;SDS011;65988;52.422;16.746;2023-05-07T05:32:53;0.20;;;0.20;;
48401;SDS011;65988;52.422;16.746;2023-05-07T05:35:21;0.22;;;0.22;;
48401;SDS011;65988;52.422;16.746;2023-05-07T05:37:54;0.30;;;0.30;;
48401;SDS011;65988;52.422;16.746;2023-05-07T05:41:06;0.20;;;0.20;;
48401;SDS011;65988;52.422;16.746;2023-05-07T05:49:04;0.20;;;0.20;;
48401;SDS011;65988;52.422;16.746;2023-05-07T05:51:32;0.20;;;0.20;;
48401;SDS011;65988;52.422;16.746;2023-05-07T05:54:06;0.30;;;0.30;;
48401;SDS011;65988;52.422;16.746;2023-05-07T05:59:26;0.20;;;0.20;;
48401;SDS011;65988;52.422;16.746;2023-05-07T06:01:54;0.20;;;0.20;;
48401;SDS011;65988;52.422;16.746;2023-05-07T06:04:41;0.20;;;0.20;;
48401;SDS011;65988;52.422;16.746;2023-05-07T06:07:19;0.20;;;0.20;;
48401;SDS011;65988;52.422;16.746;2023-05-07T06:09:47;0.10;;;0.10;;
48401;SDS011;65988;52.422;16.746;2023-05-07T07:04:21;0.10;;;0.10;;
48401;SDS011;65988;52.422;16.746;2023-05-07T07:06:59;0.10;;;0.10;;
48401;SDS011;65988;52.422;16.746;2023-05-07T07:09:50;0.10;;;0.10;;
48401;SDS011;65988;52.422;16.746;2023-05-07T07:18:13;0.10;;;0.10;;
48401;SDS011;65988;52.422;16.746;2023-05-07T07:20:41;0.10;;;0.10;;
48401;SDS011;65988;52.422;16.746;2023-05-07T07:23:36;0.10;;;0.10;;
48401;SDS011;65988;52.422;16.746;2023-05-07T07:26:17;0.10;;;0.10;;
48401;SDS011;65988;52.422;16.746;2023-05-07T07:28:48;0.10;;;0.10;;
48401;SDS011;65988;52.422;16.746;2023-05-07T07:31:25;0.00;;;0.00;;
48401;SDS011;65988;52.422;16.746;2023-05-07T07:34:02;0.00;;;0.00;;
48401;SDS011;65988;52.422;16.746;2023-05-07T07:40:07;0.10;;;0.10;;
48401;SDS011;65988;52.422;16.746;2023-05-07T07:48:58;0.00;;;0.00;;
48401;SDS011;65988;52.422;16.746;2023-05-07T07:51:46;0.10;;;0.10;;
48401;SDS011;65988;52.422;16.746;2023-05-07T07:54:41;0.10;;;0.10;;
48401;SDS011;65988;52.422;16.746;2023-05-07T07:59:59;0.10;;;0.10;;
48401;SDS011;65988;52.422;16.746;2023-05-07T08:02:28;0.10;;;0.10;;
48401;SDS011;65988;52.422;16.746;2023-05-07T08:07:38;0.08;;;0.08;;
48401;SDS011;65988;52.422;16.746;2023-05-07T08:10:12;0.00;;;0.00;;
48401;SDS011;65988;52.422;16.746;2023-05-07T08:12:41;0.00;;;0.00;;
48401;SDS011;65988;52.422;16.746;2023-05-07T08:19:09;0.00;;;0.00;;
48401;SDS011;65988;52.422;16.746;2023-05-07T08:21:38;0.00;;;0.00;;
48401;SDS011;65988;52.422;16.746;2023-05-07T08:27:40;0.00;;;0.00;;
48401;SDS011;65988;52.422;16.746;2023-05-07T08:36:29;0.05;;;0.05;;
48401;SDS011;65988;52.422;16.746;2023-05-07T08:39:25;0.10;;;0.10;;
48401;SDS011;65988;52.422;16.746;2023-05-07T08:42:01;0.10;;;0.10;;
48401;SDS011;65988;52.422;16.746;2023-05-07T08:44:39;0.10;;;0.10;;
48401;SDS011;65988;52.422;16.746;2023-05-07T08:47:16;0.10;;;0.10;;
48401;SDS011;65988;52.422;16.746;2023-05-07T08:49:54;0.00;;;0.00;;
48401;SDS011;65988;52.422;16.746;2023-05-07T08:54:48;0.10;;;0.10;;
48401;SDS011;65988;52.422;16.746;2023-05-07T08:57:20;0.10;;;0.10;;
48401;SDS011;65988;52.422;16.746;2023-05-07T09:00:04;0.10;;;0.10;;
48401;SDS011;65988;52.422;16.746;2023-05-07T09:02:35;0.10;;;0.10;;
48401;SDS011;65988;52.422;16.746;2023-05-07T09:05:07;0.10;;;0.10;;
48401;SDS011;65988;52.422;16.746;2023-05-07T09:13:16;0.10;;;0.10;;
48401;SDS011;65988;52.422;16.746;2023-05-07T09:15:50;0.10;;;0.10;;
48401;SDS011;65988;52.422;16.746;2023-05-07T09:29:07;0.00;;;0.00;;
48401;SDS011;65988;52.422;16.746;2023-05-07T09:32:10;0.00;;;0.00;;
48401;SDS011;65988;52.422;16.746;2023-05-07T09:35:01;0.03;;;0.03;;
48401;SDS011;65988;52.422;16.746;2023-05-07T09:38:02;0.00;;;0.00;;
48401;SDS011;65988;52.422;16.746;2023-05-07T09:41:11;0.00;;;0.00;;
48401;SDS011;65988;52.422;16.746;2023-05-07T09:47:41;0.00;;;0.00;;
48401;SDS011;65988;52.422;16.746;2023-05-07T09:50:36;0.00;;;0.00;;
48401;SDS011;65988;52.422;16.746;2023-05-07T09:53:38;0.00;;;0.00;;
48401;SDS011;65988;52.422;16.746;2023-05-07T09:56:12;0.00;;;0.00;;
48401;SDS011;65988;52.422;16.746;2023-05-07T09:58:52;0.00;;;0.00;;
48401;SDS011;65988;52.422;16.746;2023-05-07T10:01:29;0.10;;;0.10;;
48401;SDS011;65988;52.422;16.746;2023-05-07T10:04:04;0.10;;;0.10;;
48401;SDS011;65988;52.422;16.746;2023-05-07T10:06:40;0.00;;;0.00;;
48401;SDS011;65988;52.422;16.746;2023-05-07T10:09:12;0.00;;;0.00;;
48401;SDS011;65988;52.422;16.746;2023-05-07T10:17:13;0.00;;;0.00;;
48401;SDS011;65988;52.422;16.746;2023-05-07T10:20:27;0.05;;;0.05;;
48401;SDS011;65988;52.422;16.746;2023-05-07T10:22:53;0.00;;;0.00;;
48401;SDS011;65988;52.422;16.746;2023-05-07T10:25:33;0.10;;;0.10;;
48401;SDS011;65988;52.422;16.746;2023-05-07T10:31:18;0.00;;;0.00;;
48401;SDS011;65988;52.422;16.746;2023-05-07T10:34:47;0.03;;;0.03;;
48401;SDS011;65988;52.422;16.746;2023-05-07T10:37:44;0.00;;;0.00;;
48401;SDS011;65988;52.422;16.746;2023-05-07T10:40:20;0.00;;;0.00;;
48401;SDS011;65988;52.422;16.746;2023-05-07T10:43:01;0.00;;;0.00;;
48401;SDS011;65988;52.422;16.746;2023-05-07T10:45:30;0.10;;;0.10;;
48401;SDS011;65988;52.422;16.746;2023-05-07T10:57:58;0.10;;;0.10;;
48401;SDS011;65988;52.422;16.746;2023-05-07T11:04:17;0.00;;;0.00;;
48401;SDS011;65988;52.422;16.746;2023-05-07T11:10:08;0.03;;;0.03;;
48401;SDS011;65988;52.422;16.746;2023-05-07T11:19:02;0.00;;;0.00;;
48401;SDS011;65988;52.422;16.746;2023-05-07T11:24:26;0.00;;;0.00;;
48401;SDS011;65988;52.422;16.746;2023-05-07T11:27:19;0.10;;;0.10;;
48401;SDS011;65988;52.422;16.746;2023-05-07T11:30:15;0.00;;;0.00;;
48401;SDS011;65988;52.422;16.746;2023-05-07T11:32:48;0.00;;;0.00;;
48401;SDS011;65988;52.422;16.746;2023-05-07T11:35:15;0.05;;;0.05;;
48401;SDS011;65988;52.422;16.746;2023-05-07T11:37:50;0.00;;;0.00;;
48401;SDS011;65988;52.422;16.746;2023-05-07T11:40:34;0.00;;;0.00;;
48401;SDS011;65988;52.422;16.746;2023-05-07T11:43:34;0.00;;;0.00;;
48401;SDS011;65988;52.422;16.746;2023-05-07T11:46:05;0.10;;;0.10;;
48401;SDS011;65988;52.422;16.746;2023-05-07T11:48:52;0.00;;;0.00;;
48401;SDS011;65988;52.422;16.746;2023-05-07T11:51:26;0.00;;;0.00;;
48401;SDS011;65988;52.422;16.746;2023-05-07T11:54:03;0.00;;;0.00;;
48401;SDS011;65988;52.422;16.746;2023-05-07T11:56:47;0.00;;;0.00;;
48401;SDS011;65988;52.422;16.746;2023-05-07T12:05:40;0.00;;;0.00;;
48401;SDS011;65988;52.422;16.746;2023-05-07T12:08:31;0.00;;;0.00;;
48401;SDS011;65988;52.422;16.746;2023-05-07T12:11:15;0.00;;;0.00;;
48401;SDS011;65988;52.422;16.746;2023-05-07T12:13:45;0.00;;;0.00;;
48401;SDS011;65988;52.422;16.746;2023-05-07T12:16:12;0.00;;;0.00;;
48401;SDS011;65988;52.422;16.746;2023-05-07T12:21:45;0.00;;;0.00;;
48401;SDS011;65988;52.422;16.746;2023-05-07T12:24:29;0.00;;;0.00;;
48401;SDS011;65988;52.422;16.746;2023-05-07T12:27:09;0.00;;;0.00;;
48401;SDS011;65988;52.422;16.746;2023-05-07T12:29:39;0.00;;;0.00;;
48401;SDS011;65988;52.422;16.746;2023-05-07T12:32:12;0.00;;;0.00;;
48401;SDS011;65988;52.422;16.746;2023-05-07T12:34:49;0.00;;;0.00;;
48401;SDS011;65988;52.422;16.746;2023-05-07T12:37:30;0.00;;;0.00;;
48401;SDS011;65988;52.422;16.746;2023-05-07T12:40:43;0.00;;;0.00;;
48401;SDS011;65988;52.422;16.746;2023-05-07T12:43:47;0.00;;;0.00;;
48401;SDS011;65988;52.422;16.746;2023-05-07T12:46:13;0.00;;;0.00;;
48401;SDS011;65988;52.422;16.746;2023-05-07T12:52:38;0.00;;;0.00;;
48401;SDS011;65988;52.422;16.746;2023-05-07T12:55:12;0.00;;;0.00;;
48401;SDS011;65988;52.422;16.746;2023-05-07T13:04:27;0.00;;;0.00;;
48401;SDS011;65988;52.422;16.746;2023-05-07T13:07:09;0.00;;;0.00;;
48401;SDS011;65988;52.422;16.746;2023-05-07T13:10:06;0.00;;;0.00;;
48401;SDS011;65988;52.422;16.746;2023-05-07T13:12:35;0.00;;;0.00;;
48401;SDS011;65988;52.422;16.746;2023-05-07T13:17:39;0.00;;;0.00;;
48401;SDS011;65988;52.422;16.746;2023-05-07T13:23:22;0.00;;;0.00;;
48401;SDS011;65988;52.422;16.746;2023-05-07T13:28:39;0.00;;;0.00;;
48401;SDS011;65988;52.422;16.746;2023-05-07T13:31:09;0.00;;;0.00;;
48401;SDS011;65988;52.422;16.746;2023-05-07T13:33:46;0.00;;;0.00;;
48401;SDS011;65988;52.422;16.746;2023-05-07T13:36:47;0.00;;;0.00;;
48401;SDS011;65988;52.422;16.746;2023-05-07T13:39:32;0.00;;;0.00;;
48401;SDS011;65988;52.422;16.746;2023-05-07T13:44:39;0.00;;;0.00;;
48401;SDS011;65988;52.422;16.746;2023-05-07T13:50:19;0.00;;;0.00;;
48401;SDS011;65988;52.422;16.746;2023-05-07T13:53:07;0.00;;;0.00;;
48401;SDS011;65988;52.422;16.746;2023-05-07T14:34:13;0.00;;;0.00;;
48401;SDS011;65988;52.422;16.746;2023-05-07T14:42:13;0.00;;;0.00;;
48401;SDS011;65988;52.422;16.746;2023-05-07T14:54:21;0.00;;;0.00;;
48401;SDS011;65988;52.422;16.746;2023-05-07T15:02:56;0.00;;;0.00;;
48401;SDS011;65988;52.422;16.746;2023-05-07T15:09:19;0.00;;;0.00;;
48401;SDS011;65988;52.422;16.746;2023-05-07T15:12:33;0.00;;;0.00;;
48401;SDS011;65988;52.422;16.746;2023-05-07T15:17:41;0.00;;;0.00;;
48401;SDS011;65988;52.422;16.746;2023-05-07T15:20:22;0.00;;;0.00;;
48401;SDS011;65988;52.422;16.746;2023-05-07T15:22:55;0.00;;;0.00;;
48401;SDS011;65988;52.422;16.746;2023-05-07T15:25:29;0.00;;;0.00;;
48401;SDS011;65988;52.422;16.746;2023-05-07T15:28:34;0.00;;;0.00;;
48401;SDS011;65988;52.422;16.746;2023-05-07T15:31:02;0.00;;;0.00;;
48401;SDS011;65988;52.422;16.746;2023-05-07T15:33:33;0.00;;;0.00;;
48401;SDS011;65988;52.422;16.746;2023-05-07T15:36:05;0.00;;;0.00;;
48401;SDS011;65988;52.422;16.746;2023-05-07T15:38:41;0.00;;;0.00;;
48401;SDS011;65988;52.422;16.746;2023-05-07T15:41:15;0.00;;;0.00;;
48401;SDS011;65988;52.422;16.746;2023-05-07T15:43:47;0.00;;;0.00;;
48401;SDS011;65988;52.422;16.746;2023-05-07T15:46:21;0.00;;;0.00;;
48401;SDS011;65988;52.422;16.746;2023-05-07T15:51:55;0.00;;;0.00;;
48401;SDS011;65988;52.422;16.746;2023-05-07T15:54:31;0.00;;;0.00;;
48401;SDS011;65988;52.422;16.746;2023-05-07T16:03:18;0.00;;;0.00;;
48401;SDS011;65988;52.422;16.746;2023-05-07T16:06:09;0.00;;;0.00;;
48401;SDS011;65988;52.422;16.746;2023-05-07T16:08:43;0.00;;;0.00;;
48401;SDS011;65988;52.422;16.746;2023-05-07T16:11:09;0.00;;;0.00;;
48401;SDS011;65988;52.422;16.746;2023-05-07T16:16:15;0.00;;;0.00;;
48401;SDS011;65988;52.422;16.746;2023-05-07T16:18:43;0.10;;;0.10;;
48401;SDS011;65988;52.422;16.746;2023-05-07T16:21:32;0.03;;;0.03;;
48401;SDS011;65988;52.422;16.746;2023-05-07T16:24:06;0.10;;;0.10;;
48401;SDS011;65988;52.422;16.746;2023-05-07T16:26:42;0.00;;;0.00;;
48401;SDS011;65988;52.422;16.746;2023-05-07T16:29:10;0.00;;;0.00;;
48401;SDS011;65988;52.422;16.746;2023-05-07T16:31:40;0.00;;;0.00;;
48401;SDS011;65988;52.422;16.746;2023-05-07T16:34:18;0.00;;;0.00;;
48401;SDS011;65988;52.422;16.746;2023-05-07T16:36:47;0.00;;;0.00;;
48401;SDS011;65988;52.422;16.746;2023-05-07T16:39:12;0.00;;;0.00;;
48401;SDS011;65988;52.422;16.746;2023-05-07T16:41:41;0.00;;;0.00;;
48401;SDS011;65988;52.422;16.746;2023-05-07T16:46:58;0.00;;;0.00;;
48401;SDS011;65988;52.422;16.746;2023-05-07T16:49:23;0.00;;;0.00;;
48401;SDS011;65988;52.422;16.746;2023-05-07T16:54:51;0.00;;;0.00;;
48401;SDS011;65988;52.422;16.746;2023-05-07T16:57:29;0.00;;;0.00;;
48401;SDS011;65988;52.422;16.746;2023-05-07T17:03:02;0.00;;;0.00;;
48401;SDS011;65988;52.422;16.746;2023-05-07T17:05:33;0.10;;;0.10;;
48401;SDS011;65988;52.422;16.746;2023-05-07T17:13:53;0.10;;;0.10;;
48401;SDS011;65988;52.422;16.746;2023-05-07T17:16:25;0.10;;;0.10;;
48401;SDS011;65988;52.422;16.746;2023-05-07T17:25:22;0.10;;;0.10;;
48401;SDS011;65988;52.422;16.746;2023-05-07T17:34:15;0.10;;;0.10;;
48401;SDS011;65988;52.422;16.746;2023-05-07T17:36:57;0.10;;;0.10;;
48401;SDS011;65988;52.422;16.746;2023-05-07T17:40:26;0.00;;;0.00;;
48401;SDS011;65988;52.422;16.746;2023-05-07T17:43:17;0.10;;;0.10;;
48401;SDS011;65988;52.422;16.746;2023-05-07T17:46:13;0.10;;;0.10;;
48401;SDS011;65988;52.422;16.746;2023-05-07T17:48:50;0.10;;;0.10;;
48401;SDS011;65988;52.422;16.746;2023-05-07T17:51:18;0.10;;;0.10;;
48401;SDS011;65988;52.422;16.746;2023-05-07T17:53:52;0.10;;;0.10;;
48401;SDS011;65988;52.422;16.746;2023-05-07T17:56:31;0.20;;;0.20;;
48401;SDS011;65988;52.422;16.746;2023-05-07T18:02:20;0.10;;;0.10;;
48401;SDS011;65988;52.422;16.746;2023-05-07T18:05:01;0.10;;;0.10;;
48401;SDS011;65988;52.422;16.746;2023-05-07T18:10:28;0.10;;;0.10;;
48401;SDS011;65988;52.422;16.746;2023-05-07T18:13:06;0.10;;;0.10;;
48401;SDS011;65988;52.422;16.746;2023-05-07T18:18:45;0.10;;;0.10;;
48401;SDS011;65988;52.422;16.746;2023-05-07T18:21:13;0.10;;;0.10;;
48401;SDS011;65988;52.422;16.746;2023-05-07T18:23:56;0.20;;;0.20;;
48401;SDS011;65988;52.422;16.746;2023-05-07T18:26:22;0.20;;;0.20;;
48401;SDS011;65988;52.422;16.746;2023-05-07T18:29:09;0.13;;;0.13;;
48401;SDS011;65988;52.422;16.746;2023-05-07T18:34:40;0.20;;;0.20;;
48401;SDS011;65988;52.422;16.746;2023-05-07T18:37:13;0.10;;;0.10;;
48401;SDS011;65988;52.422;16.746;2023-05-07T18:39:42;0.20;;;0.20;;
48401;SDS011;65988;52.422;16.746;2023-05-07T18:42:12;0.20;;;0.20;;
48401;SDS011;65988;52.422;16.746;2023-05-07T18:44:44;0.20;;;0.20;;
48401;SDS011;65988;52.422;16.746;2023-05-07T18:47:20;0.10;;;0.10;;
48401;SDS011;65988;52.422;16.746;2023-05-07T18:49:48;0.10;;;0.10;;
48401;SDS011;65988;52.422;16.746;2023-05-07T18:52:18;0.10;;;0.10;;
48401;SDS011;65988;52.422;16.746;2023-05-07T18:54:48;0.20;;;0.20;;
48401;SDS011;65988;52.422;16.746;2023-05-07T18:57:16;0.20;;;0.20;;
48401;SDS011;65988;52.422;16.746;2023-05-07T18:59:47;0.10;;;0.10;;
48401;SDS011;65988;52.422;16.746;2023-05-07T19:04:40;0.30;;;0.30;;
48401;SDS011;65988;52.422;16.746;2023-05-07T19:07:14;0.30;;;0.30;;
48401;SDS011;65988;52.422;16.746;2023-05-07T19:09:48;0.20;;;0.20;;
48401;SDS011;65988;52.422;16.746;2023-05-07T19:12:19;0.17;;;0.17;;
48401;SDS011;65988;52.422;16.746;2023-05-07T19:14:53;0.15;;;0.15;;
48401;SDS011;65988;52.422;16.746;2023-05-07T19:17:27;0.20;;;0.20;;
48401;SDS011;65988;52.422;16.746;2023-05-07T19:19:56;0.28;;;0.28;;
48401;SDS011;65988;52.422;16.746;2023-05-07T19:22:30;0.20;;;0.20;;
48401;SDS011;65988;52.422;16.746;2023-05-07T19:25:05;0.20;;;0.20;;
48401;SDS011;65988;52.422;16.746;2023-05-07T19:27:42;0.20;;;0.20;;
48401;SDS011;65988;52.422;16.746;2023-05-07T19:30:20;0.10;;;0.10;;
48401;SDS011;65988;52.422;16.746;2023-05-07T19:32:53;0.20;;;0.20;;
48401;SDS011;65988;52.422;16.746;2023-05-07T19:44:40;0.30;;;0.30;;
48401;SDS011;65988;52.422;16.746;2023-05-07T19:50:04;0.22;;;0.22;;
48401;SDS011;65988;52.422;16.746;2023-05-07T19:52:41;0.30;;;0.30;;
48401;SDS011;65988;52.422;16.746;2023-05-07T19:55:14;0.20;;;0.20;;
48401;SDS011;65988;52.422;16.746;2023-05-07T19:58:17;0.43;;;0.43;;
48401;SDS011;65988;52.422;16.746;2023-05-07T20:04:10;0.22;;;0.22;;
48401;SDS011;65988;52.422;16.746;2023-05-07T20:06:41;0.20;;;0.20;;
48401;SDS011;65988;52.422;16.746;2023-05-07T20:09:10;0.20;;;0.20;;
48401;SDS011;65988;52.422;16.746;2023-05-07T20:11:48;0.22;;;0.22;;
48401;SDS011;65988;52.422;16.746;2023-05-07T20:14:29;0.15;;;0.15;;
48401;SDS011;65988;52.422;16.746;2023-05-07T20:16:58;0.20;;;0.20;;
48401;SDS011;65988;52.422;16.746;2023-05-07T20:22:28;0.20;;;0.20;;
48401;SDS011;65988;52.422;16.746;2023-05-07T20:25:02;0.20;;;0.20;;
48401;SDS011;65988;52.422;16.746;2023-05-07T20:27:48;0.30;;;0.30;;
48401;SDS011;65988;52.422;16.746;2023-05-07T20:33:13;0.20;;;0.20;;
48401;SDS011;65988;52.422;16.746;2023-05-07T20:35:46;0.20;;;0.20;;
48401;SDS011;65988;52.422;16.746;2023-05-07T20:38:22;0.20;;;0.20;;
48401;SDS011;65988;52.422;16.746;2023-05-07T20:40:50;0.20;;;0.20;;
48401;SDS011;65988;52.422;16.746;2023-05-07T20:43:16;0.20;;;0.20;;
48401;SDS011;65988;52.422;16.746;2023-05-07T20:45:48;0.20;;;0.20;;
48401;SDS011;65988;52.422;16.746;2023-05-07T20:48:30;0.30;;;0.30;;
48401;SDS011;65988;52.422;16.746;2023-05-07T20:50:58;0.20;;;0.20;;
48401;SDS011;65988;52.422;16.746;2023-05-07T20:53:28;0.20;;;0.20;;
48401;SDS011;65988;52.422;16.746;2023-05-07T20:55:57;0.30;;;0.30;;
48401;SDS011;65988;52.422;16.746;2023-05-07T20:58:23;0.20;;;0.20;;
48401;SDS011;65988;52.422;16.746;2023-05-07T21:00:51;0.20;;;0.20;;
48401;SDS011;65988;52.422;16.746;2023-05-07T21:03:20;0.17;;;0.17;;
48401;SDS011;65988;52.422;16.746;2023-05-07T21:05:51;0.30;;;0.30;;
48401;SDS011;65988;52.422;16.746;2023-05-07T21:08:21;0.17;;;0.17;;